createdAt,value
2019-04-27T00:01:27.168Z,3.57
2019-04-27T00:03:06.079Z,3.47
2019-04-27T00:04:48.757Z,3.52
2019-04-27T00:06:26.198Z,3.50
2019-04-27T00:08:15.168Z,3.52
2019-04-27T00:10:03.859Z,4.10
2019-04-27T00:11:42.078Z,3.50
2019-04-27T00:13:18.748Z,3.67
2019-04-27T00:14:58.817Z,3.67
2019-04-27T00:16:54.258Z,3.67
2019-04-27T00:18:31.413Z,3.67
2019-04-27T00:20:25.617Z,3.70
2019-04-27T00:22:05.446Z,3.45
2019-04-27T00:23:43.002Z,4.08
2019-04-27T00:25:27.076Z,4.00
2019-04-27T00:27:03.287Z,3.90
2019-04-27T00:28:38.979Z,3.70
2019-04-27T00:30:15.466Z,3.95
2019-04-27T00:31:51.056Z,3.90
2019-04-27T00:33:27.914Z,3.70
2019-04-27T00:35:03.934Z,3.90
2019-04-27T00:36:46.890Z,4.05
2019-04-27T00:38:33.749Z,3.77
2019-04-27T00:40:10.983Z,3.80
2019-04-27T00:41:46.505Z,3.98
2019-04-27T00:43:22.927Z,3.80
2019-04-27T00:44:59.769Z,4.27
2019-04-27T00:46:35.300Z,4.15
2019-04-27T00:48:10.816Z,4.37
2019-04-27T00:49:46.410Z,3.70
2019-04-27T00:51:23.172Z,3.90
2019-04-27T00:53:00.010Z,4.00
2019-04-27T00:54:35.701Z,4.17
2019-04-27T00:56:13.938Z,4.30
2019-04-27T00:58:07.658Z,3.80
2019-04-27T00:59:43.211Z,3.87
2019-04-27T01:01:23.395Z,4.13
2019-04-27T01:03:04.625Z,4.05
2019-04-27T01:04:40.145Z,4.63
2019-04-27T01:06:15.680Z,4.00
2019-04-27T01:07:51.198Z,4.43
2019-04-27T01:09:26.976Z,4.73
2019-04-27T01:11:02.984Z,4.60
2019-04-27T01:12:42.981Z,4.67
2019-04-27T01:14:18.652Z,4.90
2019-04-27T01:15:54.227Z,4.78
2019-04-27T01:17:30.207Z,4.62
2019-04-27T01:19:05.728Z,4.47
2019-04-27T01:20:41.251Z,4.78
2019-04-27T01:22:16.780Z,4.70
2019-04-27T01:23:52.311Z,4.60
2019-04-27T01:25:29.459Z,4.93
2019-04-27T01:27:23.191Z,4.90
2019-04-27T01:29:03.154Z,5.10
2019-04-27T01:30:56.580Z,4.90
2019-04-27T01:32:33.957Z,5.40
2019-04-27T01:34:09.839Z,5.67
2019-04-27T01:35:45.364Z,5.50
2019-04-27T01:37:21.172Z,5.97
2019-04-27T01:38:59.454Z,5.77
2019-04-27T01:40:35.286Z,4.90
2019-04-27T01:42:10.812Z,5.62
2019-04-27T01:43:46.326Z,6.28
2019-04-27T01:45:21.855Z,6.03
2019-04-27T01:46:57.389Z,6.07
2019-04-27T01:48:32.892Z,6.20
2019-04-27T01:50:08.865Z,5.58
2019-04-27T01:51:44.382Z,6.33
2019-04-27T01:53:19.929Z,6.00
2019-04-27T01:54:55.726Z,5.60
2019-04-27T01:56:31.241Z,5.80
2019-04-27T01:58:10.736Z,6.37
2019-04-27T01:59:44.345Z,5.85
2019-04-27T02:01:39.022Z,5.63
2019-04-27T02:03:16.601Z,5.65
2019-04-27T02:05:09.863Z,5.63
2019-04-27T02:06:48.711Z,6.37
2019-04-27T02:08:24.505Z,6.03
2019-04-27T02:10:00.686Z,5.47
2019-04-27T02:11:36.199Z,6.08
2019-04-27T02:13:11.736Z,5.90
2019-04-27T02:14:49.087Z,5.42
2019-04-27T02:16:24.689Z,5.70
2019-04-27T02:18:00.766Z,6.47
2019-04-27T02:19:36.374Z,5.75
2019-04-27T02:21:11.905Z,5.90
2019-04-27T02:22:48.504Z,5.45
2019-04-27T02:24:24.738Z,6.20
2019-04-27T02:26:00.880Z,5.28
2019-04-27T02:27:38.913Z,5.55
2019-04-27T02:29:19.316Z,5.47
2019-04-27T02:31:05.471Z,5.97
2019-04-27T02:32:51.402Z,5.83
2019-04-27T02:34:32.292Z,5.80
2019-04-27T02:36:12.196Z,5.80
2019-04-27T02:37:45.369Z,6.00
2019-04-27T02:39:21.729Z,5.60
2019-04-27T02:41:00.068Z,5.23
2019-04-27T02:42:39.240Z,5.00
2019-04-27T02:44:19.959Z,4.72
2019-04-27T02:45:55.677Z,5.20
2019-04-27T02:47:31.195Z,5.20
2019-04-27T02:49:07.393Z,5.90
2019-04-27T02:50:45.105Z,5.53
2019-04-27T02:52:29.823Z,5.17
2019-04-27T02:54:04.908Z,5.70
2019-04-27T02:55:41.078Z,4.90
2019-04-27T02:57:16.604Z,5.37
2019-04-27T02:58:52.329Z,5.60
2019-04-27T03:00:29.230Z,5.10
2019-04-27T03:02:10.756Z,5.93
2019-04-27T03:03:46.508Z,7.47
2019-04-27T03:05:26.274Z,5.57
2019-04-27T03:07:01.789Z,5.87
2019-04-27T03:08:39.409Z,5.05
2019-04-27T03:10:14.640Z,5.53
2019-04-27T03:11:50.271Z,5.90
2019-04-27T03:13:30.151Z,5.57
2019-04-27T03:15:14.809Z,6.23
2019-04-27T03:17:00.011Z,7.28
2019-04-27T03:18:40.461Z,6.53
2019-04-27T03:20:20.448Z,6.67
2019-04-27T03:21:59.301Z,7.70
2019-04-27T03:23:35.796Z,5.85
2019-04-27T03:25:15.163Z,6.65
2019-04-27T03:27:00.455Z,6.28
2019-04-27T03:28:36.225Z,7.23
2019-04-27T03:30:13.933Z,7.03
2019-04-27T03:31:53.915Z,7.17
2019-04-27T03:33:26.657Z,7.10
2019-04-27T03:35:03.708Z,7.20
2019-04-27T03:36:39.681Z,7.40
2019-04-27T03:38:15.678Z,7.05
2019-04-27T03:39:51.351Z,7.45
2019-04-27T03:41:29.299Z,7.47
2019-04-27T03:43:06.421Z,8.43
2019-04-27T03:44:41.933Z,7.67
2019-04-27T03:46:20.194Z,7.97
2019-04-27T03:47:54.955Z,8.03
2019-04-27T03:49:37.755Z,8.30
2019-04-27T03:51:09.716Z,7.80
2019-04-27T03:53:02.763Z,7.75
2019-04-27T03:54:59.807Z,7.57
2019-04-27T03:56:39.580Z,7.75
2019-04-27T03:58:16.494Z,7.78
2019-04-27T03:59:59.716Z,7.50
2019-04-27T04:01:36.111Z,8.25
2019-04-27T04:03:11.621Z,7.55
2019-04-27T04:04:50.675Z,7.53
2019-04-27T04:06:25.451Z,7.53
2019-04-27T04:08:01.807Z,7.57
2019-04-27T04:09:40.967Z,8.50
2019-04-27T04:11:19.823Z,8.00
2019-04-27T04:13:03.159Z,7.90
2019-04-27T04:14:42.467Z,7.73
2019-04-27T04:16:23.334Z,7.20
2019-04-27T04:17:59.567Z,6.83
2019-04-27T04:19:51.153Z,7.70
2019-04-27T04:21:13.488Z,7.28
2019-04-27T04:22:51.329Z,8.97
2019-04-27T04:24:28.645Z,9.20
2019-04-27T04:26:03.826Z,6.80
2019-04-27T04:27:40.086Z,7.77
2019-04-27T04:29:16.648Z,8.40
2019-04-27T04:30:52.239Z,8.45
2019-04-27T04:32:29.709Z,8.50
2019-04-27T04:34:05.178Z,8.37
2019-04-27T04:35:40.679Z,6.78
2019-04-27T04:37:16.470Z,8.48
2019-04-27T04:38:52.236Z,8.08
2019-04-27T04:40:41.722Z,7.87
2019-04-27T04:42:31.154Z,8.05
2019-04-27T04:44:12.137Z,8.33
2019-04-27T04:46:09.929Z,8.40
2019-04-27T04:47:44.671Z,7.95
2019-04-27T04:49:21.575Z,8.10
2019-04-27T04:50:59.785Z,6.93
2019-04-27T04:52:34.686Z,8.40
2019-04-27T04:54:10.275Z,7.80
2019-04-27T04:55:46.070Z,9.03
2019-04-27T04:57:22.006Z,8.53
2019-04-27T04:58:59.825Z,7.97
2019-04-27T05:00:34.942Z,7.63
2019-04-27T05:02:10.878Z,7.93
2019-04-27T05:03:46.571Z,8.13
2019-04-27T05:05:22.090Z,8.10
2019-04-27T05:06:59.190Z,7.50
2019-04-27T05:08:34.957Z,7.77
2019-04-27T05:10:10.653Z,8.10
2019-04-27T05:11:46.174Z,7.90
2019-04-27T05:13:21.779Z,8.23
2019-04-27T05:14:58.977Z,8.53
2019-04-27T05:16:34.621Z,7.87
2019-04-27T05:18:10.148Z,7.20
2019-04-27T05:19:45.746Z,8.50
2019-04-27T05:21:29.466Z,7.58
2019-04-27T05:23:07.040Z,7.60
2019-04-27T05:24:42.560Z,7.70
2019-04-27T05:26:18.985Z,6.85
2019-04-27T05:27:55.320Z,6.87
2019-04-27T05:29:30.838Z,6.85
2019-04-27T05:31:06.911Z,7.40
2019-04-27T05:32:42.426Z,8.80
2019-04-27T05:34:19.553Z,7.35
2019-04-27T05:35:55.349Z,7.30
2019-04-27T05:37:31.862Z,8.57
2019-04-27T05:39:10.064Z,7.70
2019-04-27T05:40:45.716Z,7.58
2019-04-27T05:42:21.235Z,7.28
2019-04-27T05:43:56.529Z,7.43
2019-04-27T05:46:25.339Z,7.30
2019-04-27T05:48:03.457Z,7.40
2019-04-27T05:49:44.243Z,7.90
2019-04-27T05:51:19.646Z,7.50
2019-04-27T05:52:55.367Z,8.10
2019-04-27T05:54:30.888Z,7.60
2019-04-27T05:56:09.262Z,8.80
2019-04-27T05:57:44.773Z,7.08
2019-04-27T05:59:20.065Z,7.00
2019-04-27T06:00:55.563Z,6.87
2019-04-27T06:02:31.086Z,7.63
2019-04-27T06:04:08.849Z,6.87
2019-04-27T06:05:44.362Z,6.78
2019-04-27T06:07:19.979Z,7.03
2019-04-27T06:08:55.506Z,6.83
2019-04-27T06:10:31.398Z,7.40
2019-04-27T06:12:08.880Z,7.40
2019-04-27T06:13:44.583Z,7.22
2019-04-27T06:15:20.126Z,7.87
2019-04-27T06:16:59.464Z,6.90
2019-04-27T06:18:34.587Z,6.73
2019-04-27T06:20:10.991Z,7.60
2019-04-27T06:21:46.782Z,6.87
2019-04-27T06:23:22.252Z,7.78
2019-04-27T06:24:59.718Z,7.92
2019-04-27T06:26:35.149Z,8.50
2019-04-27T06:28:10.694Z,8.10
2019-04-27T06:29:46.227Z,7.73
2019-04-27T06:31:21.767Z,7.33
2019-04-27T06:32:59.387Z,7.47
2019-04-27T06:34:34.997Z,7.50
2019-04-27T06:36:10.537Z,7.80
2019-04-27T06:37:46.077Z,7.13
2019-04-27T06:39:21.729Z,8.15
2019-04-27T06:40:57.254Z,8.30
2019-04-27T06:42:34.488Z,8.47
2019-04-27T06:44:11.398Z,7.43
2019-04-27T06:45:48.813Z,8.13
2019-04-27T06:47:24.518Z,7.83
2019-04-27T06:49:00.091Z,7.62
2019-04-27T06:50:36.590Z,7.90
2019-04-27T06:52:13.359Z,8.40
2019-04-27T06:53:49.443Z,8.90
2019-04-27T06:55:25.083Z,8.43
2019-04-27T06:57:00.607Z,8.98
2019-04-27T06:58:36.144Z,9.23
2019-04-27T07:00:11.723Z,9.50
2019-04-27T07:01:48.863Z,10.27
2019-04-27T07:03:24.543Z,9.13
2019-04-27T07:05:00.082Z,8.63
2019-04-27T07:06:36.769Z,9.47
2019-04-27T07:08:18.192Z,8.23
2019-04-27T07:09:53.864Z,8.60
2019-04-27T07:11:29.697Z,8.65
2019-04-27T07:13:06.929Z,7.90
2019-04-27T07:14:52.423Z,8.77
2019-04-27T07:16:20.847Z,8.40
2019-04-27T07:17:56.502Z,8.48
2019-04-27T07:19:32.020Z,9.47
2019-04-27T07:21:16.886Z,8.83
2019-04-27T07:22:44.789Z,9.07
2019-04-27T07:24:20.327Z,10.20
2019-04-27T07:25:55.857Z,9.23
2019-04-27T07:27:31.368Z,9.13
2019-04-27T07:29:06.989Z,8.33
2019-04-27T07:30:43.866Z,8.50
2019-04-27T07:32:19.613Z,9.00
2019-04-27T07:33:55.208Z,9.83
2019-04-27T07:35:33.364Z,8.88
2019-04-27T07:37:09.729Z,9.30
2019-04-27T07:38:46.132Z,8.30
2019-04-27T07:40:22.001Z,9.50
2019-04-27T07:41:58.581Z,10.08
2019-04-27T07:43:36.181Z,9.37
2019-04-27T07:45:13.885Z,9.80
2019-04-27T07:46:51.051Z,10.27
2019-04-27T07:48:28.455Z,9.90
2019-04-27T07:50:06.422Z,9.63
2019-04-27T07:51:41.959Z,10.33
2019-04-27T07:54:59.072Z,10.60
2019-04-27T07:56:34.622Z,9.30
2019-04-27T07:58:10.180Z,9.37
2019-04-27T07:59:45.704Z,9.93
2019-04-27T08:01:22.647Z,9.30
2019-04-27T08:02:58.634Z,9.53
2019-04-27T08:04:34.343Z,9.80
2019-04-27T08:06:10.828Z,9.53
2019-04-27T08:07:49.004Z,9.20
2019-04-27T08:09:24.455Z,10.53
2019-04-27T08:11:00.036Z,10.95
2019-04-27T08:12:35.574Z,10.63
2019-04-27T08:14:11.399Z,10.73
2019-04-27T08:15:47.397Z,9.73
2019-04-27T08:17:22.936Z,10.45
2019-04-27T08:19:00.056Z,11.28
2019-04-27T08:20:35.679Z,12.87
2019-04-27T08:22:11.218Z,10.43
2019-04-27T08:23:48.997Z,10.83
2019-04-27T08:25:24.616Z,9.90
2019-04-27T08:27:17.411Z,12.65
2019-04-27T08:29:08.513Z,12.20
2019-04-27T08:30:54.812Z,13.40
2019-04-27T08:32:35.722Z,12.00
2019-04-27T08:34:12.954Z,13.20
2019-04-27T08:35:49.058Z,12.30
2019-04-27T08:37:25.190Z,13.80
2019-04-27T08:39:00.710Z,11.85
2019-04-27T08:40:39.326Z,12.40
2019-04-27T08:42:15.001Z,12.33
2019-04-27T08:43:50.540Z,12.80
2019-04-27T08:45:26.083Z,11.88
2019-04-27T08:47:01.625Z,13.65
2019-04-27T08:48:39.242Z,12.93
2019-04-27T08:50:45.321Z,12.57
2019-04-27T08:52:20.855Z,12.33
2019-04-27T08:53:56.648Z,12.88
2019-04-27T08:55:32.175Z,13.58
2019-04-27T08:57:09.524Z,15.18
2019-04-27T08:58:44.962Z,13.55
2019-04-27T09:00:20.691Z,14.43
2019-04-27T09:01:56.247Z,13.05
2019-04-27T09:03:31.807Z,12.28
2019-04-27T09:05:09.398Z,11.83
2019-04-27T09:06:46.434Z,12.50
2019-04-27T09:08:26.314Z,11.40
2019-04-27T09:10:06.499Z,12.05
2019-04-27T09:11:43.704Z,12.37
2019-04-27T09:13:23.671Z,11.63
2019-04-27T09:15:03.606Z,11.83
2019-04-27T09:16:40.764Z,11.43
2019-04-27T09:18:19.186Z,11.70
2019-04-27T09:20:02.543Z,11.45
2019-04-27T09:21:56.116Z,10.18
2019-04-27T09:23:31.917Z,10.98
2019-04-27T09:25:09.412Z,11.43
2019-04-27T09:26:45.236Z,11.93
2019-04-27T09:28:21.905Z,12.33
2019-04-27T09:29:59.055Z,13.13
2019-04-27T09:31:34.739Z,12.00
2019-04-27T09:33:10.257Z,12.20
2019-04-27T09:34:46.669Z,10.82
2019-04-27T09:36:22.320Z,11.63
2019-04-27T09:37:57.861Z,12.33
2019-04-27T09:39:36.578Z,11.73
2019-04-27T09:41:12.546Z,12.18
2019-04-27T09:42:48.615Z,12.07
2019-04-27T09:44:24.240Z,11.93
2019-04-27T09:46:01.794Z,10.68
2019-04-27T09:47:39.046Z,10.25
2019-04-27T09:52:07.154Z,10.93
2019-04-27T09:53:50.496Z,9.63
2019-04-27T09:55:28.801Z,9.95
2019-04-27T09:57:07.087Z,10.07
2019-04-27T09:58:50.613Z,10.13
2019-04-27T10:00:31.067Z,9.70
2019-04-27T10:02:08.729Z,9.63
2019-04-27T10:03:48.334Z,8.23
2019-04-27T10:05:26.285Z,7.37
2019-04-27T10:07:08.729Z,6.97
2019-04-27T10:08:40.788Z,8.18
2019-04-27T10:10:20.076Z,6.40
2019-04-27T10:11:57.236Z,7.40
2019-04-27T10:13:51.996Z,7.62
2019-04-27T10:16:04.160Z,7.75
2019-04-27T10:17:34.373Z,8.48
2019-04-27T10:19:12.334Z,8.38
2019-04-27T10:21:12.572Z,8.78
2019-04-27T10:23:02.905Z,8.45
2019-04-27T10:24:46.227Z,7.83
2019-04-27T10:26:43.713Z,6.60
2019-04-27T10:28:26.528Z,6.50
2019-04-27T10:34:27.470Z,7.92
2019-04-27T10:36:09.065Z,8.60
2019-04-27T10:41:46.891Z,6.37
2019-04-27T10:43:25.840Z,6.60
2019-04-27T10:45:01.964Z,7.17
2019-04-27T10:46:41.878Z,6.40
2019-04-27T10:48:19.685Z,6.45
2019-04-27T10:49:58.470Z,6.35
2019-04-27T10:51:36.423Z,7.90
2019-04-27T10:53:13.911Z,7.03
2019-04-27T10:54:51.428Z,7.35
2019-04-27T10:56:32.958Z,9.13
2019-04-27T10:58:10.854Z,9.98
2019-04-27T10:59:48.126Z,8.70
2019-04-27T11:01:25.670Z,10.13
2019-04-27T11:03:06.821Z,10.33
2019-04-27T11:05:00.116Z,9.95
2019-04-27T11:06:41.961Z,9.03
2019-04-27T11:08:17.657Z,10.08
2019-04-27T11:09:53.196Z,10.30
2019-04-27T11:11:28.759Z,10.08
2019-04-27T11:13:07.302Z,10.67
2019-04-27T11:14:42.819Z,10.98
2019-04-27T11:16:26.879Z,9.85
2019-04-27T11:18:06.292Z,11.47
2019-04-27T11:19:46.032Z,10.85
2019-04-27T11:21:23.340Z,9.60
2019-04-27T11:23:06.996Z,10.83
2019-04-27T11:24:37.597Z,10.30
2019-04-27T11:26:16.110Z,11.55
2019-04-27T11:27:53.357Z,11.10
2019-04-27T11:29:36.519Z,10.50
2019-04-27T11:31:17.226Z,11.33
2019-04-27T11:32:58.928Z,11.45
2019-04-27T11:34:55.732Z,11.68
2019-04-27T11:36:35.652Z,10.70
2019-04-27T11:38:17.848Z,10.38
2019-04-27T11:39:56.067Z,9.18
2019-04-27T11:41:33.478Z,9.68
2019-04-27T11:43:17.414Z,9.17
2019-04-27T11:44:58.277Z,9.35
2019-04-27T11:46:39.733Z,7.80
2019-04-27T11:48:19.752Z,8.23
2019-04-27T11:50:00.825Z,5.90
2019-04-27T11:51:39.293Z,5.62
2019-04-27T11:53:26.135Z,5.95
2019-04-27T11:55:01.986Z,7.92
2019-04-27T11:56:39.701Z,7.35
2019-04-27T11:58:18.409Z,7.37
2019-04-27T11:59:56.278Z,7.33
2019-04-27T12:01:35.733Z,6.72
2019-04-27T12:03:16.519Z,6.15
2019-04-27T12:04:53.426Z,6.85
2019-04-27T12:06:30.561Z,6.25
2019-04-27T12:08:10.888Z,5.95
2019-04-27T12:09:48.188Z,5.57
2019-04-27T12:11:27.893Z,5.83
2019-04-27T12:13:05.760Z,5.90
2019-04-27T12:14:45.388Z,7.03
2019-04-27T12:16:30.821Z,6.10
2019-04-27T12:18:15.265Z,5.58
2019-04-27T12:19:54.085Z,5.00
2019-04-27T12:21:29.703Z,4.85
2019-04-27T12:23:10.601Z,4.25
2019-04-27T12:24:51.943Z,5.40
2019-04-27T12:26:38.376Z,4.22
2019-04-27T12:28:22.821Z,4.90
2019-04-27T12:30:03.690Z,4.45
2019-04-27T12:31:46.529Z,4.20
2019-04-27T12:33:23.576Z,5.25
2019-04-27T12:35:16.646Z,4.50
2019-04-27T12:36:53.130Z,4.40
2019-04-27T12:38:28.272Z,4.22
2019-04-27T12:40:05.968Z,4.90
2019-04-27T12:41:41.546Z,4.83
2019-04-27T12:43:17.134Z,5.00
2019-04-27T12:44:52.709Z,5.45
2019-04-27T12:46:29.723Z,4.60
2019-04-27T12:48:09.944Z,4.77
2019-04-27T12:49:45.650Z,4.27
2019-04-27T12:51:23.588Z,4.08
2019-04-27T12:53:09.882Z,4.78
2019-04-27T12:54:47.351Z,4.30
2019-04-27T12:56:35.483Z,4.53
2019-04-27T12:58:29.047Z,4.65
2019-04-27T13:00:11.634Z,4.78
2019-04-27T13:01:47.174Z,4.47
2019-04-27T13:03:22.733Z,5.03
2019-04-27T13:04:59.503Z,4.30
2019-04-27T13:06:35.795Z,4.12
2019-04-27T13:08:11.708Z,4.03
2019-04-27T13:09:47.254Z,3.60
2019-04-27T13:11:23.073Z,4.05
2019-04-27T13:12:59.662Z,3.94
2019-04-27T13:14:36.516Z,3.62
2019-04-27T13:16:12.359Z,3.40
2019-04-27T13:17:47.927Z,3.65
2019-04-27T13:19:23.744Z,2.90
2019-04-27T13:20:59.879Z,3.05
2019-04-27T13:22:37.160Z,3.20
2019-04-27T13:24:12.892Z,3.40
2019-04-27T13:25:50.136Z,3.47
2019-04-27T13:27:26.970Z,4.25
2019-04-27T13:29:06.562Z,3.87
2019-04-27T13:30:45.634Z,3.27
2019-04-27T13:32:22.401Z,4.30
2019-04-27T13:34:09.826Z,3.10
2019-04-27T13:36:01.388Z,3.40
2019-04-27T13:37:52.691Z,3.85
2019-04-27T13:39:25.701Z,2.75
2019-04-27T13:41:25.609Z,2.98
2019-04-27T13:42:57.553Z,3.10
2019-04-27T13:57:04.896Z,3.10
2019-04-27T13:58:40.412Z,3.02
2019-04-27T14:00:16.350Z,3.80
2019-04-27T14:01:51.895Z,3.00
2019-04-27T14:03:27.399Z,6.37
2019-04-27T14:05:03.292Z,3.40
2019-04-27T14:08:26.407Z,3.37
2019-04-27T14:10:01.933Z,3.10
2019-04-27T14:11:39.405Z,3.50
2019-04-27T14:13:17.512Z,2.67
2019-04-27T14:14:52.303Z,3.45
2019-04-27T14:16:29.075Z,4.70
2019-04-27T14:18:04.879Z,2.42
2019-04-27T14:19:40.388Z,3.20
2019-04-27T14:21:15.918Z,3.92
2019-04-27T14:22:51.436Z,2.52
2019-04-27T14:24:31.924Z,3.72
2019-04-27T14:26:05.818Z,2.84
2019-04-27T14:27:41.958Z,3.58
2019-04-27T14:29:18.946Z,2.37
2019-04-27T14:30:54.477Z,4.15
2019-04-27T14:32:30.999Z,2.98
2019-04-27T14:34:06.512Z,3.70
2019-04-27T14:35:42.030Z,4.37
2019-04-27T14:37:18.593Z,2.70
2019-04-27T14:38:54.442Z,2.87
2019-04-27T14:40:30.200Z,2.62
2019-04-27T14:42:05.733Z,2.62
2019-04-27T14:43:41.243Z,2.77
2019-04-27T14:45:16.767Z,3.25
2019-04-27T14:46:52.287Z,2.65
2019-04-27T14:48:29.554Z,2.60
2019-04-27T14:50:08.832Z,2.80
2019-04-27T14:51:44.524Z,3.42
2019-04-27T14:53:20.110Z,3.72
2019-04-27T14:54:55.635Z,4.42
2019-04-27T14:56:31.225Z,3.00
2019-04-27T14:58:08.568Z,4.70
2019-04-27T14:59:43.974Z,2.98
2019-04-27T15:01:23.696Z,2.98
2019-04-27T15:02:59.739Z,3.20
2019-04-27T15:04:37.619Z,3.83
2019-04-27T15:06:22.797Z,2.77
2019-04-27T15:08:01.740Z,2.65
2019-04-27T15:09:36.081Z,3.27
2019-04-27T15:11:15.556Z,2.30
2019-04-27T15:12:49.327Z,2.63
2019-04-27T15:14:25.030Z,2.60
2019-04-27T15:16:02.692Z,3.30
2019-04-27T15:17:37.820Z,2.20
2019-04-27T15:19:26.664Z,2.47
2019-04-27T15:21:02.642Z,2.20
2019-04-27T15:22:40.343Z,2.83
2019-04-27T15:24:15.984Z,2.50
2019-04-27T15:25:51.495Z,1.90
2019-04-27T15:27:30.842Z,2.08
2019-04-27T15:29:06.820Z,2.77
2019-04-27T15:30:52.754Z,2.45
2019-04-27T15:32:33.581Z,2.47
2019-04-27T15:34:17.780Z,3.22
2019-04-27T15:35:58.265Z,2.20
2019-04-27T15:37:39.352Z,2.48
2019-04-27T15:39:32.414Z,3.05
2019-04-27T15:41:09.819Z,4.65
2019-04-27T15:42:52.925Z,4.10
2019-04-27T15:44:27.912Z,6.70
2019-04-27T15:46:03.584Z,4.20
2019-04-27T15:47:42.544Z,4.00
2019-04-27T15:49:17.945Z,4.72
2019-04-27T15:50:53.552Z,3.40
2019-04-27T15:52:30.180Z,4.53
2019-04-27T15:54:06.463Z,2.72
2019-04-27T15:55:42.211Z,2.50
2019-04-27T15:57:19.141Z,3.12
2019-04-27T15:58:55.704Z,3.37
2019-04-27T16:00:32.751Z,4.83
2019-04-27T16:02:11.844Z,3.45
2019-04-27T16:03:45.688Z,3.90
2019-04-27T16:05:23.468Z,4.87
2019-04-27T16:07:00.587Z,7.40
2019-04-27T16:08:38.302Z,6.12
2019-04-27T16:10:14.165Z,5.12
2019-04-27T16:11:57.682Z,5.80
2019-04-27T16:13:32.980Z,5.92
2019-04-27T16:15:07.981Z,4.97
2019-04-27T16:16:43.675Z,5.83
2019-04-27T16:18:19.498Z,5.35
2019-04-27T16:19:55.051Z,4.87
2019-04-27T16:21:31.629Z,5.22
2019-04-27T16:23:08.747Z,5.10
2019-04-27T16:24:44.379Z,4.90
2019-04-27T16:26:20.018Z,4.70
2019-04-27T16:27:55.591Z,6.75
2019-04-27T16:29:31.603Z,5.87
2019-04-27T16:31:07.734Z,6.23
2019-04-27T16:32:44.494Z,6.00
2019-04-27T16:34:20.581Z,5.37
2019-04-27T16:36:00.357Z,5.47
2019-04-27T16:37:52.015Z,5.60
2019-04-27T16:39:28.694Z,4.80
2019-04-27T16:41:04.297Z,5.10
2019-04-27T16:42:40.708Z,4.97
2019-04-27T16:44:16.236Z,5.47
2019-04-27T16:45:51.776Z,5.47
2019-04-27T16:47:28.216Z,5.67
2019-04-27T16:49:07.331Z,6.00
2019-04-27T16:50:41.448Z,5.43
2019-04-27T16:52:19.253Z,7.00
2019-04-27T16:53:54.942Z,5.47
2019-04-27T16:55:34.176Z,5.50
2019-04-27T16:57:10.347Z,5.50
2019-04-27T16:58:49.001Z,5.50
2019-04-27T17:00:26.539Z,5.58
2019-04-27T17:02:02.192Z,5.23
2019-04-27T17:03:38.944Z,6.23
2019-04-27T17:05:15.457Z,5.30
2019-04-27T17:06:52.050Z,5.42
2019-04-27T17:08:29.091Z,5.53
2019-04-27T17:10:05.914Z,6.00
2019-04-27T17:11:43.605Z,5.60
2019-04-27T17:13:19.329Z,6.10
2019-04-27T17:14:59.429Z,6.30
2019-04-27T17:16:51.911Z,6.67
2019-04-27T17:18:44.842Z,5.40
2019-04-27T17:20:21.365Z,5.50
2019-04-27T17:21:56.961Z,5.00
2019-04-27T17:23:32.477Z,5.03
2019-04-27T17:25:08.930Z,4.83
2019-04-27T17:26:44.799Z,6.53
2019-04-27T17:28:20.334Z,5.03
2019-04-27T17:30:00.756Z,4.60
2019-04-27T17:31:35.119Z,4.17
2019-04-27T17:33:28.620Z,4.40
2019-04-27T17:35:08.830Z,3.97
2019-04-27T17:36:42.887Z,3.50
2019-04-27T17:38:18.394Z,3.47
2019-04-27T17:39:59.494Z,4.80
2019-04-27T17:41:31.227Z,2.65
2019-04-27T17:43:09.901Z,3.30
2019-04-27T17:44:43.965Z,2.37
2019-04-27T17:46:19.976Z,2.23
2019-04-27T17:48:00.386Z,2.10
2019-04-27T17:49:33.921Z,2.00
2019-04-27T17:51:09.955Z,2.00
2019-04-27T17:52:49.766Z,2.07
2019-04-27T17:54:23.019Z,2.20
2019-04-27T17:56:02.934Z,2.13
2019-04-27T17:57:35.773Z,2.55
2019-04-27T17:59:16.939Z,2.13
2019-04-27T18:00:48.524Z,2.60
2019-04-27T18:02:24.294Z,1.87
2019-04-27T18:04:02.923Z,1.98
2019-04-27T18:05:38.972Z,4.20
2019-04-27T18:07:15.096Z,3.07
2019-04-27T18:08:55.097Z,2.47
2019-04-27T18:10:29.326Z,2.00
2019-04-27T18:12:09.660Z,2.62
2019-04-27T18:13:42.245Z,2.40
2019-04-27T18:15:18.732Z,2.62
2019-04-27T18:16:54.333Z,2.10
2019-04-27T18:18:31.483Z,1.80
2019-04-27T18:20:11.786Z,1.60
2019-04-27T18:22:01.008Z,1.60
2019-04-27T18:23:45.345Z,1.30
2019-04-27T18:25:21.278Z,1.30
2019-04-27T18:27:10.344Z,1.25
2019-04-27T18:28:52.288Z,2.53
2019-04-27T18:30:28.748Z,2.27
2019-04-27T18:32:06.128Z,1.50
2019-04-27T18:33:41.741Z,1.87
2019-04-27T18:35:19.952Z,1.37
2019-04-27T18:36:54.969Z,1.40
2019-04-27T18:38:30.768Z,1.13
2019-04-27T18:40:09.304Z,1.30
2019-04-27T18:41:50.542Z,1.70
2019-04-27T18:43:22.585Z,1.67
2019-04-27T18:45:06.014Z,2.75
2019-04-27T18:46:35.675Z,1.40
2019-04-27T18:48:13.712Z,1.70
2019-04-27T18:50:07.350Z,1.80
2019-04-27T18:51:38.741Z,1.40
2019-04-27T18:53:16.461Z,1.90
2019-04-27T18:54:53.146Z,1.67
2019-04-27T18:56:29.072Z,1.75
2019-04-27T18:58:06.185Z,1.50
2019-04-27T18:59:41.710Z,1.83
2019-04-27T19:01:18.771Z,1.50
2019-04-27T19:02:54.591Z,1.40
2019-04-27T19:04:30.117Z,1.47
2019-04-27T19:06:05.695Z,1.77
2019-04-27T19:07:41.413Z,1.20
2019-04-27T19:09:18.696Z,1.20
2019-04-27T19:10:54.261Z,1.20
2019-04-27T19:12:29.778Z,1.30
2019-04-27T19:14:05.301Z,1.70
2019-04-27T19:15:40.847Z,3.50
2019-04-27T19:17:19.523Z,1.60
2019-04-27T19:18:53.592Z,1.93
2019-04-27T19:20:29.110Z,2.08
2019-04-27T19:22:04.654Z,1.70
2019-04-27T19:23:40.488Z,1.77
2019-04-27T19:25:18.340Z,1.90
2019-04-27T19:26:55.664Z,2.15
2019-04-27T19:28:39.212Z,1.70
2019-04-27T19:30:16.623Z,1.43
2019-04-27T19:31:58.524Z,1.40
2019-04-27T19:33:33.948Z,1.50
2019-04-27T19:35:09.466Z,2.10
2019-04-27T19:36:44.981Z,2.87
2019-04-27T19:38:20.514Z,2.17
2019-04-27T19:39:56.038Z,2.10
2019-04-27T19:41:31.580Z,1.90
2019-04-27T19:43:07.103Z,2.52
2019-04-27T19:44:42.624Z,2.23
2019-04-27T19:46:19.950Z,2.30
2019-04-27T19:47:55.680Z,1.80
2019-04-27T19:49:31.714Z,2.12
2019-04-27T19:51:09.050Z,1.83
2019-04-27T19:52:44.723Z,2.87
2019-04-27T19:54:21.751Z,2.00
2019-04-27T19:56:04.352Z,2.67
2019-04-27T19:57:42.077Z,2.73
2019-04-27T19:59:24.784Z,2.53
2019-04-27T20:01:14.275Z,3.08
2019-04-27T20:02:48.337Z,3.67
2019-04-27T20:04:28.199Z,2.77
2019-04-27T20:06:03.721Z,2.25
2019-04-27T20:07:39.252Z,2.53
2019-04-27T20:09:19.284Z,3.10
2019-04-27T20:10:54.823Z,2.12
2019-04-27T20:12:31.351Z,2.27
2019-04-27T20:14:07.058Z,2.20
2019-04-27T20:15:43.647Z,2.30
2019-04-27T20:17:20.539Z,2.60
2019-04-27T20:18:56.415Z,2.85
2019-04-27T20:20:31.952Z,2.45
2019-04-27T20:22:07.733Z,2.50
2019-04-27T20:23:43.257Z,2.67
2019-04-27T20:25:19.056Z,3.33
2019-04-27T20:26:54.644Z,2.93
2019-04-27T20:28:31.462Z,2.42
2019-04-27T20:30:11.111Z,3.25
2019-04-27T20:31:48.334Z,2.50
2019-04-27T20:33:23.852Z,2.50
2019-04-27T20:35:01.333Z,3.65
2019-04-27T20:36:36.675Z,2.50
2019-04-27T20:38:12.857Z,3.40
2019-04-27T20:39:48.847Z,2.63
2019-04-27T20:41:24.383Z,2.97
2019-04-27T20:43:01.546Z,3.75
2019-04-27T20:44:38.278Z,2.83
2019-04-27T20:46:13.791Z,2.60
2019-04-27T20:47:52.348Z,2.50
2019-04-27T20:49:26.815Z,2.98
2019-04-27T20:51:02.351Z,2.55
2019-04-27T20:52:40.451Z,2.50
2019-04-27T20:54:15.978Z,2.50
2019-04-27T20:55:51.737Z,2.87
2019-04-27T20:57:27.271Z,2.55
2019-04-27T20:59:02.867Z,2.67
2019-04-27T21:00:41.845Z,2.80
2019-04-27T21:02:35.187Z,2.60
2019-04-27T21:04:11.064Z,2.67
2019-04-27T21:06:04.729Z,2.77
2019-04-27T21:07:41.897Z,2.80
2019-04-27T21:09:21.155Z,3.93
2019-04-27T21:10:56.701Z,2.90
2019-04-27T21:12:32.219Z,2.58
2019-04-27T21:14:08.166Z,2.67
2019-04-27T21:15:43.692Z,2.30
2019-04-27T21:17:19.217Z,2.33
2019-04-27T21:18:54.760Z,2.50
2019-04-27T21:20:30.998Z,2.15
2019-04-27T21:22:06.578Z,2.35
2019-04-27T21:23:42.107Z,1.93
2019-04-27T21:25:17.628Z,4.40
2019-04-27T21:26:53.177Z,2.50
2019-04-27T21:28:28.678Z,2.30
2019-04-27T21:30:05.239Z,2.33
2019-04-27T21:31:41.833Z,2.50
2019-04-27T21:33:18.474Z,2.33
2019-04-27T21:34:54.009Z,2.27
2019-04-27T21:36:30.967Z,2.60
2019-04-27T21:38:06.625Z,2.50
2019-04-27T21:39:42.153Z,2.90
2019-04-27T21:41:17.675Z,2.63
2019-04-27T21:42:53.632Z,2.40
2019-04-27T21:44:29.090Z,2.20
2019-04-27T21:46:05.763Z,2.42
2019-04-27T21:47:43.125Z,1.60
2019-04-27T21:49:21.114Z,1.57
2019-04-27T21:50:56.642Z,1.50
2019-04-27T21:52:33.875Z,1.62
2019-04-27T21:54:16.622Z,1.70
2019-04-27T21:56:02.219Z,2.13
2019-04-27T21:57:37.737Z,1.98
2019-04-27T21:59:13.258Z,1.60
2019-04-27T22:01:02.449Z,1.40
2019-04-27T22:02:38.241Z,1.52
2019-04-27T22:04:14.685Z,1.77
2019-04-27T22:05:52.895Z,1.13
2019-04-27T22:07:28.412Z,1.20
2019-04-27T22:09:06.174Z,2.05